Andover, New York
Current Conditions -  °F | °C
As of 6:56 AM on Monday 22 Dec 2014 (Local Time) from KELZ Reporting Station
Clear Clear  
Wind Chill: 11°   Ceiling: Unl
Heat Index: 21°   Visibility: 10mi
Dew Point: 17°   Wind: 8mph
Humidity: 85%   Direction: 150°SSE
Pressure: 30.15"   Gusts: NA
Location:  42.16°N, 77.8°W
Report Text: KELZ 221156Z AUTO 15007KT 10SM CLR M06/M08 A3015 RMK AO2 SLP244 I1000 I6000 T10611083 11044 21067 56003
Loading
Personal Weather Stations






























Interactive Weather Map New forecast layout! Learn more

10-Day Weather Forecast

Advertisements
Track Severe Weather on mobile